createdAt,value
2022-10-14T00:01:47.399Z,10.59
2022-10-14T00:04:14.768Z,10.60
2022-10-14T00:06:41.417Z,10.67
2022-10-14T00:09:09.599Z,10.70
2022-10-14T00:11:37.787Z,10.70
2022-10-14T00:14:16.915Z,10.66
2022-10-14T00:16:45.437Z,10.67
2022-10-14T00:19:13.330Z,10.69
2022-10-14T00:21:43.058Z,10.70
2022-10-14T00:24:12.593Z,10.73
2022-10-14T00:26:40.687Z,10.74
2022-10-14T00:29:11.208Z,10.71
2022-10-14T00:31:37.791Z,10.64
2022-10-14T00:34:04.730Z,10.62
2022-10-14T00:36:31.371Z,10.52
2022-10-14T00:38:58.204Z,10.45
2022-10-14T00:41:27.467Z,10.41
2022-10-14T00:44:03.007Z,10.41
2022-10-14T00:46:33.243Z,10.35
2022-10-14T00:49:03.577Z,10.33
2022-10-14T00:51:30.417Z,10.26
2022-10-14T00:53:57.091Z,10.26
2022-10-14T00:56:28.754Z,10.24
2022-10-14T00:58:56.679Z,10.26
2022-10-14T01:01:23.543Z,10.30
2022-10-14T01:03:50.283Z,10.29
2022-10-14T01:06:25.738Z,10.26
2022-10-14T01:09:24.136Z,10.22
2022-10-14T01:12:30.490Z,10.21
2022-10-14T01:15:35.711Z,10.29
2022-10-14T01:18:51.930Z,10.31
2022-10-14T01:21:32.739Z,10.30
2022-10-14T01:24:41.967Z,10.33
2022-10-14T01:27:19.652Z,10.33
2022-10-14T01:30:08.198Z,10.26
2022-10-14T01:32:48.933Z,10.21
2022-10-14T01:36:16.936Z,10.20
2022-10-14T01:39:11.200Z,10.15
2022-10-14T01:41:46.485Z,10.07
2022-10-14T01:44:16.287Z,10.05
2022-10-14T01:46:48.785Z,10.04
2022-10-14T01:49:19.762Z,10.03
2022-10-14T01:51:50.723Z,10.07
2022-10-14T01:54:28.218Z,10.06
2022-10-14T01:56:59.559Z,10.08
2022-10-14T01:59:27.088Z,10.04
2022-10-14T02:01:53.747Z,9.94
2022-10-14T02:04:22.470Z,9.89
2022-10-14T02:07:00.330Z,9.96
2022-10-14T02:09:48.115Z,10.02
2022-10-14T02:12:34.517Z,10.08
2022-10-14T02:15:29.383Z,10.10
2022-10-14T02:18:37.695Z,10.14
2022-10-14T02:21:44.587Z,10.10
2022-10-14T02:24:20.215Z,10.08
2022-10-14T02:26:49.818Z,10.11
2022-10-14T02:29:20.162Z,10.12
2022-10-14T02:31:48.554Z,10.16
2022-10-14T02:34:19.291Z,10.20
2022-10-14T02:36:47.599Z,10.23
2022-10-14T02:39:21.514Z,10.23
2022-10-14T02:41:48.318Z,10.16
2022-10-14T02:44:14.923Z,10.16
2022-10-14T02:46:43.042Z,10.20
2022-10-14T02:49:09.697Z,10.29
2022-10-14T02:51:36.515Z,10.40
2022-10-14T02:54:03.542Z,10.45
2022-10-14T02:56:30.146Z,10.48
2022-10-14T02:58:56.715Z,10.43
2022-10-14T03:01:23.360Z,10.41
2022-10-14T03:03:50.205Z,10.32
2022-10-14T03:06:16.966Z,10.31
2022-10-14T03:08:43.678Z,10.32
2022-10-14T03:11:10.294Z,10.32
2022-10-14T03:13:36.848Z,10.43
2022-10-14T03:16:03.866Z,10.42
2022-10-14T03:18:31.385Z,10.51
2022-10-14T03:20:58.066Z,10.55
2022-10-14T03:23:24.863Z,10.62
2022-10-14T03:25:51.427Z,10.64
2022-10-14T03:28:18.104Z,10.58
2022-10-14T03:30:44.759Z,10.62
2022-10-14T03:33:14.764Z,10.64
2022-10-14T03:35:42.161Z,10.67
2022-10-14T03:38:08.914Z,10.67
2022-10-14T03:40:35.703Z,10.73
2022-10-14T03:43:02.660Z,10.80
2022-10-14T03:45:29.325Z,10.82
2022-10-14T03:47:56.101Z,10.85
2022-10-14T03:50:23.241Z,10.84
2022-10-14T03:52:54.625Z,10.83
2022-10-14T03:55:22.541Z,10.86
2022-10-14T03:57:49.118Z,10.88
2022-10-14T04:00:16.375Z,10.93
2022-10-14T04:02:43.075Z,10.88
2022-10-14T04:05:10.582Z,10.82
2022-10-14T04:07:37.278Z,10.87
2022-10-14T04:10:04.638Z,10.84
2022-10-14T04:12:31.673Z,10.83
2022-10-14T04:14:58.453Z,10.91
2022-10-14T04:17:25.536Z,10.98
2022-10-14T04:19:53.630Z,10.98
2022-10-14T04:22:20.809Z,10.96
2022-10-14T04:24:47.603Z,11.03
2022-10-14T04:27:14.215Z,11.04
2022-10-14T04:29:41.026Z,11.03
2022-10-14T04:32:07.619Z,11.06
2022-10-14T04:34:34.242Z,11.11
2022-10-14T04:37:01.004Z,11.13
2022-10-14T04:39:27.610Z,11.14
2022-10-14T04:41:54.447Z,11.19
2022-10-14T04:44:21.411Z,11.18
2022-10-14T04:46:48.149Z,11.19
2022-10-14T04:49:16.491Z,11.21
2022-10-14T04:51:43.399Z,11.23
2022-10-14T04:54:10.475Z,11.24
2022-10-14T04:56:37.770Z,11.26
2022-10-14T04:59:05.591Z,11.25
2022-10-14T05:01:34.256Z,11.26
2022-10-14T05:04:01.093Z,11.28
2022-10-14T05:06:28.143Z,11.30
2022-10-14T05:08:55.025Z,11.32
2022-10-14T05:11:21.704Z,11.32
2022-10-14T05:13:48.623Z,11.30
2022-10-14T05:16:15.446Z,11.29
2022-10-14T05:18:42.042Z,11.26
2022-10-14T05:21:09.027Z,11.26
2022-10-14T05:23:35.633Z,11.24
2022-10-14T05:26:02.232Z,11.20
2022-10-14T05:28:28.961Z,11.21
2022-10-14T05:30:55.780Z,11.23
2022-10-14T05:33:22.439Z,11.21
2022-10-14T05:36:04.125Z,11.22
2022-10-14T05:38:34.212Z,11.24
2022-10-14T05:41:01.582Z,11.27
2022-10-14T05:43:32.421Z,11.27
2022-10-14T05:46:00.229Z,11.26
2022-10-14T05:48:26.998Z,11.29
2022-10-14T05:50:53.612Z,11.33
2022-10-14T05:53:20.247Z,11.36
2022-10-14T05:55:47.071Z,11.41
2022-10-14T05:58:13.877Z,11.44
2022-10-14T06:00:40.515Z,11.46
2022-10-14T06:03:07.147Z,11.49
2022-10-14T06:05:37.188Z,11.53
2022-10-14T06:08:05.102Z,11.57
2022-10-14T06:10:31.785Z,11.58
2022-10-14T06:12:58.388Z,11.57
2022-10-14T06:15:24.982Z,11.61
2022-10-14T06:17:51.799Z,11.60
2022-10-14T06:20:18.551Z,11.63
2022-10-14T06:22:45.659Z,11.65
2022-10-14T06:25:12.324Z,11.70
2022-10-14T06:27:38.956Z,11.74
2022-10-14T06:30:06.424Z,11.78
2022-10-14T06:32:33.340Z,11.87
2022-10-14T06:35:00.341Z,11.90
2022-10-14T06:37:26.939Z,11.96
2022-10-14T06:39:53.593Z,11.96
2022-10-14T06:42:20.300Z,11.97
2022-10-14T06:44:47.065Z,11.93
2022-10-14T06:47:13.741Z,11.94
2022-10-14T06:49:40.380Z,12.02
2022-10-14T06:52:07.110Z,12.04
2022-10-14T06:54:38.880Z,12.07
2022-10-14T06:57:06.331Z,12.14
2022-10-14T06:59:32.978Z,12.17
2022-10-14T07:01:59.664Z,12.19
2022-10-14T07:04:26.529Z,12.25
2022-10-14T07:06:53.339Z,12.29
2022-10-14T07:09:20.233Z,12.40
2022-10-14T07:11:46.839Z,12.48
2022-10-14T07:14:13.401Z,12.56
2022-10-14T07:16:40.193Z,12.64
2022-10-14T07:19:06.769Z,12.66
2022-10-14T07:21:33.373Z,12.68
2022-10-14T07:23:59.944Z,12.74
2022-10-14T07:26:26.501Z,12.83
2022-10-14T07:28:53.225Z,12.89
2022-10-14T07:31:19.890Z,12.96
2022-10-14T07:33:46.662Z,13.01
2022-10-14T07:36:18.512Z,13.10
2022-10-14T07:38:48.438Z,13.02
2022-10-14T07:41:20.790Z,13.08
2022-10-14T07:43:52.361Z,13.15
2022-10-14T07:46:29.162Z,13.29
2022-10-14T07:49:00.561Z,13.43
2022-10-14T07:51:27.891Z,13.42
2022-10-14T07:53:56.328Z,13.48
2022-10-14T07:56:23.702Z,13.60
2022-10-14T07:58:50.510Z,13.59
2022-10-14T08:01:18.844Z,13.61
2022-10-14T08:03:47.278Z,13.70
2022-10-14T08:06:14.398Z,13.78
2022-10-14T08:08:42.013Z,13.87
2022-10-14T08:11:14.495Z,13.96
2022-10-14T08:13:45.055Z,14.07
2022-10-14T08:16:15.417Z,14.18
2022-10-14T08:18:42.359Z,14.31
2022-10-14T08:21:09.059Z,14.43
2022-10-14T08:23:35.666Z,14.47
2022-10-14T08:26:02.260Z,14.56
2022-10-14T08:28:29.268Z,14.63
2022-10-14T08:30:56.334Z,14.78
2022-10-14T08:33:22.897Z,14.77
2022-10-14T08:35:53.850Z,14.73
2022-10-14T08:38:25.200Z,14.73
2022-10-14T08:41:24.845Z,14.63
2022-10-14T08:44:25.735Z,14.78
2022-10-14T08:47:01.076Z,14.86
2022-10-14T08:49:49.441Z,14.97
2022-10-14T08:52:25.625Z,14.96
2022-10-14T08:55:00.903Z,14.87
2022-10-14T08:57:36.710Z,14.91
2022-10-14T09:00:04.558Z,14.76
2022-10-14T09:02:40.194Z,14.64
2022-10-14T09:05:09.883Z,14.71
2022-10-14T09:07:37.216Z,14.77
2022-10-14T09:10:08.446Z,14.79
2022-10-14T09:12:36.520Z,14.83
2022-10-14T09:15:24.854Z,14.80
2022-10-14T09:18:43.921Z,14.75
2022-10-14T09:21:51.808Z,14.65
2022-10-14T09:24:25.332Z,14.55
2022-10-14T09:29:40.329Z,14.49
2022-10-14T09:32:15.639Z,14.49
2022-10-14T09:34:48.645Z,14.47
2022-10-14T09:37:35.191Z,14.58
2022-10-14T09:40:34.087Z,14.71
2022-10-14T09:43:21.217Z,15.03
2022-10-14T09:46:00.425Z,15.23
2022-10-14T09:48:53.475Z,15.47
2022-10-14T09:51:23.805Z,15.63
2022-10-14T09:53:58.515Z,15.71
2022-10-14T09:56:45.271Z,15.69
2022-10-14T09:59:22.744Z,15.72
2022-10-14T10:01:55.549Z,15.85
2022-10-14T10:04:47.190Z,15.85
2022-10-14T10:07:24.765Z,15.84
2022-10-14T10:09:56.281Z,15.91
2022-10-14T10:12:28.916Z,16.04
2022-10-14T10:14:58.180Z,16.15
2022-10-14T10:17:27.266Z,16.17
2022-10-14T10:20:33.793Z,16.04
2022-10-14T10:23:28.939Z,16.07
2022-10-14T10:25:55.691Z,16.17
2022-10-14T10:28:32.782Z,16.23
2022-10-14T10:31:28.984Z,16.25
2022-10-14T10:34:36.138Z,16.20
2022-10-14T10:37:31.582Z,16.40
2022-10-14T10:40:37.028Z,16.20
2022-10-14T10:43:55.080Z,16.08
2022-10-14T10:46:45.142Z,16.02
2022-10-14T10:49:40.632Z,16.00
2022-10-14T10:52:23.482Z,15.88
2022-10-14T10:55:19.448Z,15.82
2022-10-14T10:58:07.483Z,15.62
2022-10-14T11:00:49.802Z,15.44
2022-10-14T11:03:44.482Z,15.25
2022-10-14T11:06:41.956Z,15.13
2022-10-14T11:09:38.227Z,14.82
2022-10-14T11:12:47.014Z,14.74
2022-10-14T11:15:23.581Z,14.76
2022-10-14T11:17:58.899Z,14.91
2022-10-14T11:21:36.049Z,15.02
2022-10-14T11:24:48.447Z,15.21
2022-10-14T11:27:48.844Z,15.35
2022-10-14T11:30:37.771Z,15.40
2022-10-14T11:33:39.866Z,15.38
2022-10-14T11:36:38.164Z,15.43
2022-10-14T11:39:33.341Z,15.40
2022-10-14T11:42:41.506Z,15.45
2022-10-14T11:45:35.525Z,15.61
2022-10-14T11:48:20.326Z,15.70
2022-10-14T11:50:52.540Z,15.91
2022-10-14T11:53:25.209Z,15.89
2022-10-14T11:56:04.882Z,15.88
2022-10-14T11:58:35.500Z,15.93
2022-10-14T12:01:20.601Z,15.96
2022-10-14T12:04:18.348Z,15.96
2022-10-14T12:06:55.721Z,15.90
2022-10-14T12:09:28.422Z,15.96
2022-10-14T12:12:02.972Z,16.03
2022-10-14T12:14:34.726Z,16.17
2022-10-14T12:17:06.411Z,16.24
2022-10-14T12:19:33.800Z,16.34
2022-10-14T12:22:22.060Z,16.47
2022-10-14T12:24:58.874Z,16.48
2022-10-14T12:27:28.700Z,16.48
2022-10-14T12:29:58.428Z,16.53
2022-10-14T12:32:31.952Z,16.60
2022-10-14T12:35:02.410Z,16.66
2022-10-14T12:37:50.716Z,16.79
2022-10-14T12:40:23.976Z,16.90
2022-10-14T12:42:59.003Z,16.93
2022-10-14T12:45:28.904Z,17.02
2022-10-14T12:48:26.536Z,17.03
2022-10-14T12:51:10.570Z,16.96
2022-10-14T12:53:46.658Z,16.86
2022-10-14T12:56:29.728Z,16.73
2022-10-14T12:59:01.344Z,16.57
2022-10-14T13:01:32.359Z,16.61
2022-10-14T13:04:17.494Z,16.65
2022-10-14T13:07:41.263Z,16.78
2022-10-14T13:10:59.530Z,16.86
2022-10-14T13:13:59.775Z,16.91
2022-10-14T13:17:06.876Z,16.95
2022-10-14T13:19:44.495Z,16.94
2022-10-14T13:22:38.415Z,16.91
2022-10-14T13:25:12.983Z,16.91
2022-10-14T13:28:05.112Z,16.94
2022-10-14T13:31:12.964Z,16.86
2022-10-14T13:34:12.695Z,16.75
2022-10-14T13:36:56.311Z,16.73
2022-10-14T13:39:23.281Z,16.58
2022-10-14T13:41:50.706Z,16.57
2022-10-14T13:44:21.853Z,16.54
2022-10-14T13:46:50.017Z,16.45
2022-10-14T13:49:33.760Z,16.41
2022-10-14T13:52:04.562Z,16.39
2022-10-14T13:54:31.666Z,16.23
2022-10-14T14:00:43.664Z,16.15
2022-10-14T14:03:40.214Z,16.07
2022-10-14T14:06:15.443Z,15.99
2022-10-14T14:08:51.218Z,15.96
2022-10-14T14:11:27.115Z,15.89
2022-10-14T14:14:01.795Z,15.92
2022-10-14T14:16:51.789Z,15.81
2022-10-14T14:19:21.569Z,15.75
2022-10-14T14:21:48.202Z,15.70
2022-10-14T14:24:25.413Z,15.63
2022-10-14T14:26:54.835Z,15.53
2022-10-14T14:29:26.928Z,15.48
2022-10-14T14:32:06.102Z,15.36
2022-10-14T14:34:35.824Z,15.40
2022-10-14T14:37:23.576Z,15.30
2022-10-14T14:40:20.206Z,15.19
2022-10-14T14:42:50.238Z,15.24
2022-10-14T14:45:21.007Z,15.13
2022-10-14T14:47:50.033Z,15.03
2022-10-14T14:50:35.424Z,15.02
2022-10-14T14:53:11.679Z,14.97
2022-10-14T14:56:14.316Z,14.91
2022-10-14T14:58:52.401Z,14.91
2022-10-14T15:01:27.775Z,14.86
2022-10-14T15:04:15.400Z,14.88
2022-10-14T15:06:51.526Z,14.85
2022-10-14T15:09:28.949Z,14.85
2022-10-14T15:11:58.006Z,14.81
2022-10-14T15:14:30.684Z,14.77
2022-10-14T15:16:57.674Z,14.76
2022-10-14T15:19:37.302Z,14.72
2022-10-14T15:22:17.175Z,14.72
2022-10-14T15:25:06.802Z,14.67
2022-10-14T15:27:51.127Z,14.65
2022-10-14T15:30:50.503Z,14.60
2022-10-14T15:33:21.101Z,14.58
2022-10-14T15:35:57.043Z,14.59
2022-10-14T15:38:24.718Z,14.61
2022-10-14T15:40:54.810Z,14.54
2022-10-14T15:43:27.270Z,14.51
2022-10-14T15:46:13.259Z,14.49
2022-10-14T15:48:46.033Z,14.53
2022-10-14T15:51:19.683Z,14.42
2022-10-14T15:53:46.694Z,14.39
2022-10-14T15:56:13.467Z,14.36
2022-10-14T15:58:40.204Z,14.34
2022-10-14T16:01:07.218Z,14.35
2022-10-14T16:03:37.259Z,14.32
2022-10-14T16:06:05.916Z,14.29
2022-10-14T16:08:33.558Z,14.23
2022-10-14T16:11:00.361Z,14.18
2022-10-14T16:13:27.101Z,14.13
2022-10-14T16:15:58.754Z,14.10
2022-10-14T16:18:27.183Z,14.06
2022-10-14T16:20:53.977Z,14.03
2022-10-14T16:23:22.645Z,14.01
2022-10-14T16:25:50.471Z,13.97
2022-10-14T16:28:17.984Z,13.95
2022-10-14T16:30:49.374Z,13.90
2022-10-14T16:33:19.990Z,13.83
2022-10-14T16:35:51.046Z,13.76
2022-10-14T16:38:19.126Z,13.75
2022-10-14T16:40:45.777Z,13.71
2022-10-14T16:43:12.416Z,13.66
2022-10-14T16:45:41.790Z,13.63
2022-10-14T16:48:08.541Z,13.57
2022-10-14T16:50:35.239Z,13.48
2022-10-14T16:53:20.401Z,13.44
2022-10-14T16:55:47.566Z,13.42
2022-10-14T16:58:15.655Z,13.38
2022-10-14T17:00:42.303Z,13.31
2022-10-14T17:03:09.008Z,13.26
2022-10-14T17:05:38.087Z,13.24
2022-10-14T17:08:05.102Z,13.22
2022-10-14T17:10:31.898Z,13.18
2022-10-14T17:12:58.632Z,13.17
2022-10-14T17:15:25.252Z,13.13
2022-10-14T17:17:53.195Z,13.11
2022-10-14T17:20:21.874Z,13.06
2022-10-14T17:22:49.846Z,13.06
2022-10-14T17:25:17.839Z,13.09
2022-10-14T17:27:44.453Z,13.08
2022-10-14T17:30:11.676Z,13.08
2022-10-14T17:32:38.437Z,13.03
2022-10-14T17:35:06.520Z,13.00
2022-10-14T17:37:34.232Z,12.95
2022-10-14T17:40:00.871Z,12.87
2022-10-14T17:42:27.463Z,12.85
2022-10-14T17:44:54.110Z,12.86
2022-10-14T17:47:20.934Z,12.84
2022-10-14T17:49:48.117Z,12.81
2022-10-14T17:52:14.791Z,12.78
2022-10-14T17:54:41.607Z,12.75
2022-10-14T17:57:08.540Z,12.76
2022-10-14T17:59:35.264Z,12.73
2022-10-14T18:02:03.369Z,12.73
2022-10-14T18:04:32.977Z,12.74
2022-10-14T18:06:59.749Z,12.79
2022-10-14T18:09:26.441Z,12.79
2022-10-14T18:12:08.101Z,12.80
2022-10-14T18:14:35.659Z,12.83
2022-10-14T18:17:02.265Z,12.80
2022-10-14T18:19:29.276Z,12.81
2022-10-14T18:21:56.045Z,12.77
2022-10-14T18:24:23.348Z,12.73
2022-10-14T18:26:53.440Z,12.73
2022-10-14T18:29:20.170Z,12.70
2022-10-14T18:31:48.879Z,12.64
2022-10-14T18:34:15.662Z,12.58
2022-10-14T18:36:42.442Z,12.54
2022-10-14T18:39:11.454Z,12.51
2022-10-14T18:41:38.241Z,12.48
2022-10-14T18:44:06.566Z,12.49
2022-10-14T18:46:38.475Z,12.44
2022-10-14T18:49:07.934Z,12.43
2022-10-14T18:51:37.090Z,12.41
2022-10-14T18:54:11.219Z,12.40
2022-10-14T18:56:38.846Z,12.39
2022-10-14T18:59:09.162Z,12.31
2022-10-14T19:01:37.470Z,12.31
2022-10-14T19:04:06.070Z,12.31
2022-10-14T19:06:34.283Z,12.32
2022-10-14T19:09:01.918Z,12.34
2022-10-14T19:11:29.692Z,12.32
2022-10-14T19:13:58.396Z,12.29
2022-10-14T19:16:30.839Z,12.35
2022-10-14T19:19:01.305Z,12.37
2022-10-14T19:21:30.519Z,12.40
2022-10-14T19:23:58.682Z,12.44
2022-10-14T19:26:28.605Z,12.49
2022-10-14T19:28:57.706Z,12.53
2022-10-14T19:31:26.863Z,12.58
2022-10-14T19:33:54.609Z,12.57
2022-10-14T19:36:22.687Z,12.61
2022-10-14T19:38:52.367Z,12.59
2022-10-14T19:41:19.105Z,12.59
2022-10-14T19:43:46.093Z,12.67
2022-10-14T19:46:13.810Z,12.66
2022-10-14T19:48:41.025Z,12.69
2022-10-14T19:51:11.591Z,12.72
2022-10-14T19:53:40.137Z,12.73
2022-10-14T19:56:09.474Z,12.79
2022-10-14T19:58:39.657Z,12.77
2022-10-14T20:01:15.881Z,12.73
2022-10-14T20:03:43.145Z,12.67
2022-10-14T20:06:11.976Z,12.70
2022-10-14T20:08:39.151Z,12.66
2022-10-14T20:11:07.980Z,12.66
2022-10-14T20:13:35.151Z,12.69
2022-10-14T20:16:02.616Z,12.70
2022-10-14T20:18:33.190Z,12.69
2022-10-14T20:21:01.806Z,12.69
2022-10-14T20:23:28.650Z,12.69
2022-10-14T20:26:02.906Z,12.67
2022-10-14T20:28:29.828Z,12.69
2022-10-14T20:30:57.427Z,12.70
2022-10-14T20:33:25.214Z,12.72
2022-10-14T20:36:07.753Z,12.71
2022-10-14T20:38:34.594Z,12.71
2022-10-14T20:41:12.787Z,12.62
2022-10-14T20:43:40.290Z,12.56
2022-10-14T20:46:06.893Z,12.54
2022-10-14T20:48:33.750Z,12.56
2022-10-14T20:51:03.935Z,12.53
2022-10-14T20:53:31.145Z,12.54
2022-10-14T20:56:02.846Z,12.54
2022-10-14T20:58:29.506Z,12.52
2022-10-14T21:01:08.183Z,12.50
2022-10-14T21:03:35.103Z,12.50
2022-10-14T21:06:03.538Z,12.50
2022-10-14T21:08:30.268Z,12.51
2022-10-14T21:11:12.143Z,12.50
2022-10-14T21:13:47.487Z,12.52
2022-10-14T21:16:21.413Z,12.49
2022-10-14T21:18:53.717Z,12.50
2022-10-14T21:21:29.503Z,12.54
2022-10-14T21:23:56.473Z,12.52
2022-10-14T21:26:23.443Z,12.50
2022-10-14T21:28:50.132Z,12.53
2022-10-14T21:31:19.144Z,12.57
2022-10-14T21:33:59.858Z,12.57
2022-10-14T21:36:29.783Z,12.55
2022-10-14T21:38:57.158Z,12.52
2022-10-14T21:41:24.666Z,12.53
2022-10-14T21:43:51.455Z,12.56
2022-10-14T21:46:18.202Z,12.58
2022-10-14T21:48:45.399Z,12.55
2022-10-14T21:51:17.434Z,12.46
2022-10-14T21:53:45.540Z,12.44
2022-10-14T21:56:14.559Z,12.38
2022-10-14T21:58:41.595Z,12.34
2022-10-14T22:01:09.804Z,12.29
2022-10-14T22:03:37.829Z,12.28
2022-10-14T22:06:07.418Z,12.22
2022-10-14T22:08:36.479Z,12.20
2022-10-14T22:11:04.220Z,12.20
2022-10-14T22:13:31.082Z,12.18
2022-10-14T22:15:57.997Z,12.19
2022-10-14T22:18:24.626Z,12.19
2022-10-14T22:21:00.996Z,12.20
2022-10-14T22:23:27.628Z,12.24
2022-10-14T22:25:54.663Z,12.26
2022-10-14T22:28:21.314Z,12.21
2022-10-14T22:30:47.916Z,12.20
2022-10-14T22:33:14.507Z,12.24
2022-10-14T22:35:41.300Z,12.25
2022-10-14T22:38:07.886Z,12.29
2022-10-14T22:40:34.748Z,12.29
2022-10-14T22:43:01.406Z,12.25
2022-10-14T22:45:28.151Z,12.28
2022-10-14T22:47:54.941Z,12.20
2022-10-14T22:50:21.578Z,12.15
2022-10-14T22:52:48.139Z,12.11
2022-10-14T22:55:14.996Z,12.10
2022-10-14T22:57:41.896Z,12.11
2022-10-14T23:00:09.416Z,12.13
2022-10-14T23:02:36.050Z,12.11
2022-10-14T23:05:02.820Z,12.07
2022-10-14T23:07:29.535Z,12.08
2022-10-14T23:09:56.340Z,12.05
2022-10-14T23:12:23.100Z,12.03
2022-10-14T23:14:51.287Z,12.05
2022-10-14T23:17:17.822Z,12.07
2022-10-14T23:19:44.377Z,12.07
2022-10-14T23:22:11.189Z,12.12
2022-10-14T23:24:37.950Z,12.12
2022-10-14T23:27:04.562Z,12.07
2022-10-14T23:29:31.150Z,12.08
2022-10-14T23:31:58.153Z,12.08
2022-10-14T23:34:25.013Z,12.07
2022-10-14T23:36:51.828Z,12.01
2022-10-14T23:39:18.474Z,12.02
2022-10-14T23:41:45.176Z,12.05
2022-10-14T23:44:12.172Z,12.08
2022-10-14T23:46:38.977Z,12.04
2022-10-14T23:49:14.354Z,12.03
2022-10-14T23:51:51.893Z,12.00
2022-10-14T23:54:18.526Z,12.01
2022-10-14T23:56:45.363Z,12.04
2022-10-14T23:59:12.279Z,11.99
